sensor_id;sensor_type;location;lat;lon;timestamp;pressure;altitude;pressure_sealevel;temperature;humidity
25232;BME280;13176;51.140;6.290;2023-07-09T00:01:21;100897.38;;;28.90;47.80
25232;BME280;13176;51.140;6.290;2023-07-09T00:03:47;100975.06;;;29.33;47.89
25232;BME280;13176;51.140;6.290;2023-07-09T00:06:18;100998.84;;;29.49;47.75
25232;BME280;13176;51.140;6.290;2023-07-09T00:08:47;100941.06;;;29.03;47.96
25232;BME280;13176;51.140;6.290;2023-07-09T00:11:15;100833.91;;;28.37;48.07
25232;BME280;13176;51.140;6.290;2023-07-09T00:13:42;100925.00;;;28.81;48.36
25232;BME280;13176;51.140;6.290;2023-07-09T00:16:19;100825.91;;;28.15;48.21
25232;BME280;13176;51.140;6.290;2023-07-09T00:18:47;100867.00;;;28.37;48.21
25232;BME280;13176;51.140;6.290;2023-07-09T00:21:17;100959.75;;;29.04;48.24
25232;BME280;13176;51.140;6.290;2023-07-09T00:23:44;100873.16;;;28.49;48.57
25232;BME280;13176;51.140;6.290;2023-07-09T00:26:12;100913.00;;;28.64;48.81
25232;BME280;13176;51.140;6.290;2023-07-09T00:28:41;100894.44;;;28.41;49.04
25232;BME280;13176;51.140;6.290;2023-07-09T00:31:12;100865.44;;;28.24;48.88
25232;BME280;13176;51.140;6.290;2023-07-09T00:33:44;100921.03;;;28.44;49.01
25232;BME280;13176;51.140;6.290;2023-07-09T00:36:26;100957.97;;;28.62;49.10
25232;BME280;13176;51.140;6.290;2023-07-09T00:38:54;100877.66;;;28.17;48.97
25232;BME280;13176;51.140;6.290;2023-07-09T00:41:22;100976.59;;;28.86;48.74
25232;BME280;13176;51.140;6.290;2023-07-09T00:43:51;101014.91;;;28.99;48.86
25232;BME280;13176;51.140;6.290;2023-07-09T00:49:00;101027.41;;;28.78;49.84
25232;BME280;13176;51.140;6.290;2023-07-09T00:51:33;100915.75;;;28.11;49.86
25232;BME280;13176;51.140;6.290;2023-07-09T00:54:11;100905.31;;;27.97;50.10
25232;BME280;13176;51.140;6.290;2023-07-09T00:56:43;100851.22;;;27.37;50.72
25232;BME280;13176;51.140;6.290;2023-07-09T00:59:14;100832.59;;;27.25;50.49
25232;BME280;13176;51.140;6.290;2023-07-09T01:01:44;101036.31;;;28.47;51.26
25232;BME280;13176;51.140;6.290;2023-07-09T01:04:13;100824.41;;;27.37;50.89
25232;BME280;13176;51.140;6.290;2023-07-09T01:06:45;101021.66;;;28.51;51.11
25232;BME280;13176;51.140;6.290;2023-07-09T01:09:13;100834.88;;;27.40;50.98
25232;BME280;13176;51.140;6.290;2023-07-09T01:11:39;100978.84;;;28.27;50.75
25232;BME280;13176;51.140;6.290;2023-07-09T01:14:08;101014.09;;;28.45;50.39
25232;BME280;13176;51.140;6.290;2023-07-09T01:16:37;100860.00;;;27.39;51.18
25232;BME280;13176;51.140;6.290;2023-07-09T01:19:05;101031.91;;;28.46;50.98
25232;BME280;13176;51.140;6.290;2023-07-09T01:21:32;100953.25;;;28.01;50.91
25232;BME280;13176;51.140;6.290;2023-07-09T01:24:11;100868.78;;;27.41;51.17
25232;BME280;13176;51.140;6.290;2023-07-09T01:26:40;100824.69;;;27.12;51.08
25232;BME280;13176;51.140;6.290;2023-07-09T01:29:07;101009.50;;;28.14;51.95
25232;BME280;13176;51.140;6.290;2023-07-09T01:31:35;101009.25;;;28.06;51.67
25232;BME280;13176;51.140;6.290;2023-07-09T01:34:02;100919.75;;;27.52;51.73
25232;BME280;13176;51.140;6.290;2023-07-09T01:36:28;101019.78;;;27.98;51.89
25232;BME280;13176;51.140;6.290;2023-07-09T01:38:56;100940.72;;;27.58;51.84
25232;BME280;13176;51.140;6.290;2023-07-09T01:41:23;100889.00;;;27.34;51.85
25232;BME280;13176;51.140;6.290;2023-07-09T01:43:49;100982.69;;;27.81;51.80
25232;BME280;13176;51.140;6.290;2023-07-09T01:46:16;100930.72;;;27.49;51.68
25232;BME280;13176;51.140;6.290;2023-07-09T01:48:43;100970.13;;;27.71;52.21
25232;BME280;13176;51.140;6.290;2023-07-09T01:51:14;100866.56;;;27.02;52.40
25232;BME280;13176;51.140;6.290;2023-07-09T01:53:45;100887.06;;;27.14;52.60
25232;BME280;13176;51.140;6.290;2023-07-09T01:56:11;100839.97;;;26.77;53.00
25232;BME280;13176;51.140;6.290;2023-07-09T01:58:38;100937.78;;;27.28;52.96
25232;BME280;13176;51.140;6.290;2023-07-09T02:01:09;100964.97;;;27.35;53.29
25232;BME280;13176;51.140;6.290;2023-07-09T02:03:36;100959.97;;;27.19;53.49
25232;BME280;13176;51.140;6.290;2023-07-09T02:06:03;100971.88;;;27.15;53.98
25232;BME280;13176;51.140;6.290;2023-07-09T02:08:36;100938.41;;;26.97;53.94
25232;BME280;13176;51.140;6.290;2023-07-09T02:11:03;100994.09;;;27.28;53.96
25232;BME280;13176;51.140;6.290;2023-07-09T02:13:30;100995.78;;;27.18;53.83
25232;BME280;13176;51.140;6.290;2023-07-09T02:15:56;100912.50;;;26.64;54.05
25232;BME280;13176;51.140;6.290;2023-07-09T02:18:23;101012.59;;;27.20;54.13
25232;BME280;13176;51.140;6.290;2023-07-09T02:20:49;100897.03;;;26.33;54.46
25232;BME280;13176;51.140;6.290;2023-07-09T02:23:16;100961.94;;;26.60;55.55
25232;BME280;13176;51.140;6.290;2023-07-09T02:25:42;100970.94;;;26.59;55.62
25232;BME280;13176;51.140;6.290;2023-07-09T02:28:09;100850.13;;;25.93;55.22
25232;BME280;13176;51.140;6.290;2023-07-09T02:30:35;100901.38;;;26.23;55.37
25232;BME280;13176;51.140;6.290;2023-07-09T02:33:02;100981.78;;;26.91;54.82
25232;BME280;13176;51.140;6.290;2023-07-09T02:35:28;100943.19;;;26.60;54.67
25232;BME280;13176;51.140;6.290;2023-07-09T02:37:55;100871.13;;;26.33;54.90
25232;BME280;13176;51.140;6.290;2023-07-09T02:40:21;100891.75;;;26.44;54.58
25232;BME280;13176;51.140;6.290;2023-07-09T02:42:48;100996.47;;;27.09;54.91
25232;BME280;13176;51.140;6.290;2023-07-09T02:45:14;100914.22;;;26.54;54.56
25232;BME280;13176;51.140;6.290;2023-07-09T02:47:41;100974.09;;;26.87;54.45
25232;BME280;13176;51.140;6.290;2023-07-09T02:50:10;100981.66;;;26.93;54.78
25232;BME280;13176;51.140;6.290;2023-07-09T02:52:36;101015.06;;;27.00;55.04
25232;BME280;13176;51.140;6.290;2023-07-09T02:55:03;100952.91;;;26.50;55.32
25232;BME280;13176;51.140;6.290;2023-07-09T02:57:30;101012.72;;;26.95;55.44
25232;BME280;13176;51.140;6.290;2023-07-09T02:59:59;101017.97;;;26.97;55.38
25232;BME280;13176;51.140;6.290;2023-07-09T03:02:25;100988.06;;;26.79;54.76
25232;BME280;13176;51.140;6.290;2023-07-09T03:04:52;100839.72;;;26.01;54.79
25232;BME280;13176;51.140;6.290;2023-07-09T03:07:19;101009.44;;;26.92;54.60
25232;BME280;13176;51.140;6.290;2023-07-09T03:09:46;100974.63;;;26.68;54.55
25232;BME280;13176;51.140;6.290;2023-07-09T03:12:12;100905.19;;;26.31;54.52
25232;BME280;13176;51.140;6.290;2023-07-09T03:14:39;100939.00;;;26.45;54.98
25232;BME280;13176;51.140;6.290;2023-07-09T03:17:05;101020.63;;;26.86;55.25
25232;BME280;13176;51.140;6.290;2023-07-09T03:19:32;100948.41;;;26.38;55.23
25232;BME280;13176;51.140;6.290;2023-07-09T03:22:02;101000.75;;;26.77;55.92
25232;BME280;13176;51.140;6.290;2023-07-09T03:24:29;100924.75;;;26.21;55.60
25232;BME280;13176;51.140;6.290;2023-07-09T03:26:56;101048.63;;;27.05;55.64
25232;BME280;13176;51.140;6.290;2023-07-09T03:29:25;100910.38;;;26.22;55.64
25232;BME280;13176;51.140;6.290;2023-07-09T03:31:51;100929.63;;;26.27;55.70
25232;BME280;13176;51.140;6.290;2023-07-09T03:34:18;100940.31;;;26.27;55.85
25232;BME280;13176;51.140;6.290;2023-07-09T03:36:47;100913.97;;;26.10;55.99
25232;BME280;13176;51.140;6.290;2023-07-09T03:39:13;101039.50;;;26.84;56.03
25232;BME280;13176;51.140;6.290;2023-07-09T03:41:40;101063.03;;;26.92;56.44
25232;BME280;13176;51.140;6.290;2023-07-09T03:44:08;100915.38;;;26.03;56.31
25232;BME280;13176;51.140;6.290;2023-07-09T03:46:34;100960.22;;;26.35;56.53
25232;BME280;13176;51.140;6.290;2023-07-09T03:49:01;100996.59;;;26.50;56.27
25232;BME280;13176;51.140;6.290;2023-07-09T03:51:27;100941.00;;;25.94;57.32
25232;BME280;13176;51.140;6.290;2023-07-09T03:53:54;100972.88;;;25.97;57.58
25232;BME280;13176;51.140;6.290;2023-07-09T03:56:20;101040.13;;;26.29;57.75
25232;BME280;13176;51.140;6.290;2023-07-09T03:58:47;101053.28;;;26.32;58.07
25232;BME280;13176;51.140;6.290;2023-07-09T04:01:14;100931.97;;;25.59;58.21
25232;BME280;13176;51.140;6.290;2023-07-09T04:03:43;101032.84;;;26.31;58.22
25232;BME280;13176;51.140;6.290;2023-07-09T04:06:09;101037.38;;;26.18;57.99
25232;BME280;13176;51.140;6.290;2023-07-09T04:08:36;100923.44;;;25.42;58.76
25232;BME280;13176;51.140;6.290;2023-07-09T04:11:03;101058.75;;;26.30;59.09
25232;BME280;13176;51.140;6.290;2023-07-09T04:13:29;101014.03;;;26.07;58.80
25232;BME280;13176;51.140;6.290;2023-07-09T04:15:56;100931.81;;;25.73;58.75
25232;BME280;13176;51.140;6.290;2023-07-09T04:18:23;101013.13;;;26.32;57.94
25232;BME280;13176;51.140;6.290;2023-07-09T04:20:50;100996.88;;;26.22;57.50
25232;BME280;13176;51.140;6.290;2023-07-09T04:23:18;100911.28;;;25.74;57.80
25232;BME280;13176;51.140;6.290;2023-07-09T04:25:45;100911.63;;;25.82;58.37
25232;BME280;13176;51.140;6.290;2023-07-09T04:28:11;100881.03;;;25.61;58.25
25232;BME280;13176;51.140;6.290;2023-07-09T04:30:38;100948.75;;;26.10;57.95
25232;BME280;13176;51.140;6.290;2023-07-09T04:33:05;100945.13;;;26.11;58.03
25232;BME280;13176;51.140;6.290;2023-07-09T04:35:32;100919.41;;;26.08;58.22
25232;BME280;13176;51.140;6.290;2023-07-09T04:37:58;101032.38;;;26.72;58.27
25232;BME280;13176;51.140;6.290;2023-07-09T04:40:25;100839.50;;;25.68;57.06
25232;BME280;13176;51.140;6.290;2023-07-09T04:42:51;100974.66;;;26.45;57.08
25232;BME280;13176;51.140;6.290;2023-07-09T04:45:18;101005.59;;;26.72;55.91
25232;BME280;13176;51.140;6.290;2023-07-09T04:47:47;100847.59;;;25.79;56.29
25232;BME280;13176;51.140;6.290;2023-07-09T04:50:13;101041.22;;;26.96;56.73
25232;BME280;13176;51.140;6.290;2023-07-09T04:52:40;100924.25;;;26.27;57.39
25232;BME280;13176;51.140;6.290;2023-07-09T04:55:07;101010.31;;;26.92;57.70
25232;BME280;13176;51.140;6.290;2023-07-09T04:57:35;100985.63;;;26.76;58.16
25232;BME280;13176;51.140;6.290;2023-07-09T05:00:03;101030.28;;;26.99;56.98
25232;BME280;13176;51.140;6.290;2023-07-09T05:02:31;101002.81;;;26.85;58.39
25232;BME280;13176;51.140;6.290;2023-07-09T05:04:58;100869.81;;;25.92;57.50
25232;BME280;13176;51.140;6.290;2023-07-09T05:07:25;101026.19;;;26.83;58.51
25232;BME280;13176;51.140;6.290;2023-07-09T05:09:51;101009.75;;;26.76;59.09
25232;BME280;13176;51.140;6.290;2023-07-09T05:12:19;100925.06;;;26.40;56.36
25232;BME280;13176;51.140;6.290;2023-07-09T05:14:47;100897.97;;;26.21;56.93
25232;BME280;13176;51.140;6.290;2023-07-09T05:17:13;101033.16;;;27.09;55.61
25232;BME280;13176;51.140;6.290;2023-07-09T05:19:40;100971.66;;;26.61;56.21
25232;BME280;13176;51.140;6.290;2023-07-09T05:22:06;100911.53;;;26.41;56.17
25232;BME280;13176;51.140;6.290;2023-07-09T05:24:35;100941.00;;;26.54;56.48
25232;BME280;13176;51.140;6.290;2023-07-09T05:27:02;100943.97;;;26.72;56.05
25232;BME280;13176;51.140;6.290;2023-07-09T05:29:29;100944.69;;;26.74;55.08
25232;BME280;13176;51.140;6.290;2023-07-09T05:31:55;101031.78;;;27.38;56.24
25232;BME280;13176;51.140;6.290;2023-07-09T05:34:22;100828.38;;;26.21;56.58
25232;BME280;13176;51.140;6.290;2023-07-09T05:36:48;100925.84;;;26.87;56.41
25232;BME280;13176;51.140;6.290;2023-07-09T05:39:15;100924.78;;;26.89;56.57
25232;BME280;13176;51.140;6.290;2023-07-09T05:41:42;100816.44;;;26.25;57.07
25232;BME280;13176;51.140;6.290;2023-07-09T05:44:09;100887.91;;;26.59;57.21
25232;BME280;13176;51.140;6.290;2023-07-09T05:46:36;100989.22;;;27.22;57.29
25232;BME280;13176;51.140;6.290;2023-07-09T05:49:05;101041.97;;;27.67;56.62
25232;BME280;13176;51.140;6.290;2023-07-09T05:51:32;100981.66;;;27.38;56.09
25232;BME280;13176;51.140;6.290;2023-07-09T05:54:01;100924.84;;;27.11;56.06
25232;BME280;13176;51.140;6.290;2023-07-09T05:56:28;101005.38;;;27.77;54.81
25232;BME280;13176;51.140;6.290;2023-07-09T05:58:55;101001.22;;;27.84;54.51
25232;BME280;13176;51.140;6.290;2023-07-09T06:01:23;100990.25;;;27.87;54.46
25232;BME280;13176;51.140;6.290;2023-07-09T06:03:50;100969.03;;;27.73;54.91
25232;BME280;13176;51.140;6.290;2023-07-09T06:06:17;100916.34;;;27.50;55.02
25232;BME280;13176;51.140;6.290;2023-07-09T06:08:43;100962.44;;;27.77;54.07
25232;BME280;13176;51.140;6.290;2023-07-09T06:11:10;100956.22;;;27.77;53.63
25232;BME280;13176;51.140;6.290;2023-07-09T06:13:39;101000.34;;;28.16;52.79
25232;BME280;13176;51.140;6.290;2023-07-09T06:16:06;101065.81;;;28.69;52.02
25232;BME280;13176;51.140;6.290;2023-07-09T06:18:33;100877.66;;;27.64;50.92
25232;BME280;13176;51.140;6.290;2023-07-09T06:21:01;101029.09;;;28.58;50.14
25232;BME280;13176;51.140;6.290;2023-07-09T06:23:29;101062.34;;;28.78;50.62
25232;BME280;13176;51.140;6.290;2023-07-09T06:25:56;100938.03;;;27.91;50.77
25232;BME280;13176;51.140;6.290;2023-07-09T06:28:25;100930.78;;;28.13;51.05
25232;BME280;13176;51.140;6.290;2023-07-09T06:30:52;100930.63;;;28.15;50.47
25232;BME280;13176;51.140;6.290;2023-07-09T06:33:19;100968.81;;;28.40;50.76
25232;BME280;13176;51.140;6.290;2023-07-09T06:35:51;101061.66;;;29.07;50.18
25232;BME280;13176;51.140;6.290;2023-07-09T06:38:19;101049.47;;;29.03;50.74
25232;BME280;13176;51.140;6.290;2023-07-09T06:40:46;101079.94;;;29.24;50.96
25232;BME280;13176;51.140;6.290;2023-07-09T06:43:13;100998.56;;;28.80;50.79
25232;BME280;13176;51.140;6.290;2023-07-09T06:45:48;101053.88;;;29.24;50.17
25232;BME280;13176;51.140;6.290;2023-07-09T06:48:15;100992.47;;;28.89;50.84
25232;BME280;13176;51.140;6.290;2023-07-09T06:50:42;101055.28;;;29.39;50.94
25232;BME280;13176;51.140;6.290;2023-07-09T06:53:08;101028.41;;;29.28;51.19
25232;BME280;13176;51.140;6.290;2023-07-09T06:55:35;101071.19;;;29.63;50.96
25232;BME280;13176;51.140;6.290;2023-07-09T06:58:02;101058.09;;;29.58;50.17
25232;BME280;13176;51.140;6.290;2023-07-09T07:00:28;101059.53;;;29.62;50.18
25232;BME280;13176;51.140;6.290;2023-07-09T07:02:55;101057.31;;;29.67;50.46
25232;BME280;13176;51.140;6.290;2023-07-09T07:05:21;101061.03;;;29.76;50.80
25232;BME280;13176;51.140;6.290;2023-07-09T07:07:48;100988.00;;;29.39;49.83
25232;BME280;13176;51.140;6.290;2023-07-09T07:10:14;101072.75;;;29.95;49.42
25232;BME280;13176;51.140;6.290;2023-07-09T07:12:43;101044.34;;;29.82;48.08
25232;BME280;13176;51.140;6.290;2023-07-09T07:15:12;101059.16;;;29.97;48.02
25232;BME280;13176;51.140;6.290;2023-07-09T07:17:39;101071.19;;;30.13;48.48
25232;BME280;13176;51.140;6.290;2023-07-09T07:20:07;101043.34;;;30.03;48.16
25232;BME280;13176;51.140;6.290;2023-07-09T07:22:34;100962.81;;;29.70;48.72
25232;BME280;13176;51.140;6.290;2023-07-09T07:25:01;100941.09;;;29.62;48.41
25232;BME280;13176;51.140;6.290;2023-07-09T07:27:28;101055.06;;;30.32;48.70
25232;BME280;13176;51.140;6.290;2023-07-09T07:29:54;101029.81;;;30.33;47.88
25232;BME280;13176;51.140;6.290;2023-07-09T07:32:21;100939.22;;;29.83;47.73
25232;BME280;13176;51.140;6.290;2023-07-09T07:34:47;101047.78;;;30.53;47.26
25232;BME280;13176;51.140;6.290;2023-07-09T07:37:17;100978.28;;;30.08;46.43
25232;BME280;13176;51.140;6.290;2023-07-09T07:39:46;100957.75;;;30.16;46.78
25232;BME280;13176;51.140;6.290;2023-07-09T07:42:13;101040.97;;;30.77;47.01
25232;BME280;13176;51.140;6.290;2023-07-09T07:44:40;100910.09;;;30.07;47.05
25232;BME280;13176;51.140;6.290;2023-07-09T07:47:06;100923.84;;;30.23;45.96
25232;BME280;13176;51.140;6.290;2023-07-09T07:49:36;100941.75;;;30.43;45.91
25232;BME280;13176;51.140;6.290;2023-07-09T07:52:03;100997.00;;;30.77;46.18
25232;BME280;13176;51.140;6.290;2023-07-09T07:54:30;100995.88;;;30.89;46.63
25232;BME280;13176;51.140;6.290;2023-07-09T07:56:59;100992.19;;;30.90;46.05
25232;BME280;13176;51.140;6.290;2023-07-09T07:59:26;101010.66;;;31.13;46.14
25232;BME280;13176;51.140;6.290;2023-07-09T08:01:52;100979.94;;;31.05;45.79
25232;BME280;13176;51.140;6.290;2023-07-09T08:04:20;100954.84;;;30.95;46.48
25232;BME280;13176;51.140;6.290;2023-07-09T08:06:47;101029.59;;;31.50;45.94
25232;BME280;13176;51.140;6.290;2023-07-09T08:09:15;101026.44;;;31.54;45.65
25232;BME280;13176;51.140;6.290;2023-07-09T08:11:42;101033.97;;;31.69;44.80
25232;BME280;13176;51.140;6.290;2023-07-09T08:14:10;101016.22;;;31.67;45.01
25232;BME280;13176;51.140;6.290;2023-07-09T08:16:38;100998.84;;;31.69;44.00
25232;BME280;13176;51.140;6.290;2023-07-09T08:19:20;100967.38;;;31.60;43.58
25232;BME280;13176;51.140;6.290;2023-07-09T08:21:47;101038.22;;;32.08;43.12
25232;BME280;13176;51.140;6.290;2023-07-09T08:24:13;100918.78;;;31.42;43.22
25232;BME280;13176;51.140;6.290;2023-07-09T08:26:40;100908.28;;;31.39;43.67
25232;BME280;13176;51.140;6.290;2023-07-09T08:29:10;101048.09;;;32.36;43.32
25232;BME280;13176;51.140;6.290;2023-07-09T08:31:36;100968.63;;;31.93;42.10
25232;BME280;13176;51.140;6.290;2023-07-09T08:34:33;100872.59;;;31.45;42.56
25232;BME280;13176;51.140;6.290;2023-07-09T08:37:33;100959.16;;;32.06;41.74
25232;BME280;13176;51.140;6.290;2023-07-09T08:40:05;100945.19;;;32.11;42.15
25232;BME280;13176;51.140;6.290;2023-07-09T08:42:42;100958.78;;;32.28;41.74
25232;BME280;13176;51.140;6.290;2023-07-09T08:45:36;101046.22;;;32.98;42.04
25232;BME280;13176;51.140;6.290;2023-07-09T08:48:27;100989.41;;;32.81;41.82
25232;BME280;13176;51.140;6.290;2023-07-09T08:50:59;100877.75;;;32.19;41.40
25232;BME280;13176;51.140;6.290;2023-07-09T08:53:39;100980.75;;;32.95;41.71
25232;BME280;13176;51.140;6.290;2023-07-09T08:56:11;101037.63;;;33.38;41.29
25232;BME280;13176;51.140;6.290;2023-07-09T08:58:40;101033.28;;;33.45;41.64
25232;BME280;13176;51.140;6.290;2023-07-09T09:01:20;101032.31;;;33.54;41.56
25232;BME280;13176;51.140;6.290;2023-07-09T09:03:51;101031.06;;;33.66;41.33
25232;BME280;13176;51.140;6.290;2023-07-09T09:06:28;100898.28;;;33.07;40.76
25232;BME280;13176;51.140;6.290;2023-07-09T09:09:03;100980.59;;;33.65;40.73
25232;BME280;13176;51.140;6.290;2023-07-09T09:11:41;100943.94;;;33.53;40.54
25232;BME280;13176;51.140;6.290;2023-07-09T09:16:45;101000.53;;;34.14;40.63
25232;BME280;13176;51.140;6.290;2023-07-09T09:19:29;100953.88;;;34.03;39.80
25232;BME280;13176;51.140;6.290;2023-07-09T09:22:02;100823.50;;;33.31;39.34
25232;BME280;13176;51.140;6.290;2023-07-09T09:24:38;100911.94;;;33.82;38.43
25232;BME280;13176;51.140;6.290;2023-07-09T09:27:07;100979.19;;;34.27;37.75
25232;BME280;13176;51.140;6.290;2023-07-09T09:29:34;101007.41;;;34.50;38.66
25232;BME280;13176;51.140;6.290;2023-07-09T09:34:47;100996.41;;;34.60;38.38
25232;BME280;13176;51.140;6.290;2023-07-09T09:37:29;100995.59;;;34.75;39.38
25232;BME280;13176;51.140;6.290;2023-07-09T09:39:58;100919.88;;;34.32;38.43
25232;BME280;13176;51.140;6.290;2023-07-09T09:42:42;100982.72;;;34.85;38.41
25232;BME280;13176;51.140;6.290;2023-07-09T09:45:15;100908.88;;;34.42;39.09
25232;BME280;13176;51.140;6.290;2023-07-09T09:47:43;100985.78;;;35.06;38.79
25232;BME280;13176;51.140;6.290;2023-07-09T09:50:15;100951.34;;;35.07;37.58
25232;BME280;13176;51.140;6.290;2023-07-09T09:52:44;100936.88;;;34.98;36.32
25232;BME280;13176;51.140;6.290;2023-07-09T09:55:24;100978.47;;;35.38;38.29
25232;BME280;13176;51.140;6.290;2023-07-09T09:57:52;100967.41;;;35.48;36.75
25232;BME280;13176;51.140;6.290;2023-07-09T10:00:23;100964.34;;;35.51;37.04
25232;BME280;13176;51.140;6.290;2023-07-09T10:02:57;100968.41;;;35.55;37.33
25232;BME280;13176;51.140;6.290;2023-07-09T10:05:34;100894.13;;;35.24;36.24
25232;BME280;13176;51.140;6.290;2023-07-09T10:10:53;100968.00;;;35.82;36.18
25232;BME280;13176;51.140;6.290;2023-07-09T10:13:34;100980.31;;;36.00;35.69
25232;BME280;13176;51.140;6.290;2023-07-09T10:16:28;100985.75;;;36.16;34.35
25232;BME280;13176;51.140;6.290;2023-07-09T10:22:01;100998.75;;;36.29;35.70
25232;BME280;13176;51.140;6.290;2023-07-09T10:24:49;100967.84;;;36.22;35.18
25232;BME280;13176;51.140;6.290;2023-07-09T10:27:37;100991.50;;;36.43;34.79
25232;BME280;13176;51.140;6.290;2023-07-09T10:30:23;100909.72;;;36.15;32.22
25232;BME280;13176;51.140;6.290;2023-07-09T10:33:08;100983.53;;;36.72;32.70
25232;BME280;13176;51.140;6.290;2023-07-09T10:35:41;100984.31;;;36.81;33.80
25232;BME280;13176;51.140;6.290;2023-07-09T10:38:24;100984.41;;;36.95;32.49
25232;BME280;13176;51.140;6.290;2023-07-09T10:40:56;100976.53;;;37.00;33.05
25232;BME280;13176;51.140;6.290;2023-07-09T10:43:52;100920.09;;;36.86;32.24
25232;BME280;13176;51.140;6.290;2023-07-09T10:46:24;100960.59;;;37.26;30.20
25232;BME280;13176;51.140;6.290;2023-07-09T10:48:53;100963.22;;;37.42;31.04
25232;BME280;13176;51.140;6.290;2023-07-09T10:51:27;100950.63;;;37.56;30.89
25232;BME280;13176;51.140;6.290;2023-07-09T10:56:47;100945.81;;;37.72;29.69
25232;BME280;13176;51.140;6.290;2023-07-09T11:01:47;100927.19;;;37.90;30.79
25232;BME280;13176;51.140;6.290;2023-07-09T11:04:29;100951.38;;;38.43;29.84
25232;BME280;13176;51.140;6.290;2023-07-09T11:07:00;100872.56;;;38.61;29.20
25232;BME280;13176;51.140;6.290;2023-07-09T11:09:33;100875.16;;;38.90;28.22
25232;BME280;13176;51.140;6.290;2023-07-09T11:12:07;100914.09;;;38.98;29.43
25232;BME280;13176;51.140;6.290;2023-07-09T11:14:51;100936.97;;;38.70;29.77
25232;BME280;13176;51.140;6.290;2023-07-09T11:17:19;100938.75;;;38.42;29.66
25232;BME280;13176;51.140;6.290;2023-07-09T11:19:53;100926.25;;;38.33;31.17
25232;BME280;13176;51.140;6.290;2023-07-09T11:22:22;100924.69;;;38.24;29.04
25232;BME280;13176;51.140;6.290;2023-07-09T11:24:50;100912.94;;;38.09;29.84
25232;BME280;13176;51.140;6.290;2023-07-09T11:27:20;100926.22;;;38.12;30.41
25232;BME280;13176;51.140;6.290;2023-07-09T11:29:57;100922.28;;;38.00;31.05
25232;BME280;13176;51.140;6.290;2023-07-09T11:32:24;100918.34;;;37.88;31.14
25232;BME280;13176;51.140;6.290;2023-07-09T11:34:51;100927.34;;;38.03;30.57
25232;BME280;13176;51.140;6.290;2023-07-09T11:37:17;100913.00;;;38.15;30.99
25232;BME280;13176;51.140;6.290;2023-07-09T11:39:46;100898.00;;;38.26;29.38
25232;BME280;13176;51.140;6.290;2023-07-09T11:42:32;100934.47;;;38.54;28.81
25232;BME280;13176;51.140;6.290;2023-07-09T11:45:11;100928.75;;;38.49;30.22
25232;BME280;13176;51.140;6.290;2023-07-09T11:47:46;100834.00;;;37.72;29.77
25232;BME280;13176;51.140;6.290;2023-07-09T11:50:26;100943.06;;;38.51;30.25
25232;BME280;13176;51.140;6.290;2023-07-09T11:53:13;100949.69;;;38.42;28.89
25232;BME280;13176;51.140;6.290;2023-07-09T11:55:45;100947.59;;;38.44;28.76
25232;BME280;13176;51.140;6.290;2023-07-09T11:58:14;100927.91;;;38.13;27.48
25232;BME280;13176;51.140;6.290;2023-07-09T12:00:44;100946.81;;;38.14;27.97
25232;BME280;13176;51.140;6.290;2023-07-09T12:03:18;100861.28;;;37.86;29.10
25232;BME280;13176;51.140;6.290;2023-07-09T12:05:59;100943.28;;;38.35;28.35
25232;BME280;13176;51.140;6.290;2023-07-09T12:10:56;100905.34;;;38.40;26.75
25232;BME280;13176;51.140;6.290;2023-07-09T12:13:23;100940.00;;;38.81;27.45
25232;BME280;13176;51.140;6.290;2023-07-09T12:15:50;100901.97;;;38.59;26.76
25232;BME280;13176;51.140;6.290;2023-07-09T12:18:18;100860.75;;;38.33;26.85
25232;BME280;13176;51.140;6.290;2023-07-09T12:20:48;100919.25;;;38.66;26.58
25232;BME280;13176;51.140;6.290;2023-07-09T12:23:22;100911.06;;;38.45;27.51
25232;BME280;13176;51.140;6.290;2023-07-09T12:25:50;100884.63;;;38.10;28.12
25232;BME280;13176;51.140;6.290;2023-07-09T12:28:19;100918.19;;;38.10;27.83
25232;BME280;13176;51.140;6.290;2023-07-09T12:30:50;100917.31;;;38.03;28.02
25232;BME280;13176;51.140;6.290;2023-07-09T12:33:23;100826.63;;;37.37;29.04
25232;BME280;13176;51.140;6.290;2023-07-09T12:35:56;100795.63;;;37.09;28.38
25232;BME280;13176;51.140;6.290;2023-07-09T12:38:27;100797.44;;;36.65;28.89
25232;BME280;13176;51.140;6.290;2023-07-09T12:41:02;100792.00;;;36.65;29.14
25232;BME280;13176;51.140;6.290;2023-07-09T12:43:31;100755.53;;;36.38;29.81
25232;BME280;13176;51.140;6.290;2023-07-09T12:45:59;100873.31;;;37.20;30.67
25232;BME280;13176;51.140;6.290;2023-07-09T12:48:28;100877.25;;;37.03;30.24
25232;BME280;13176;51.140;6.290;2023-07-09T12:50:58;100758.63;;;35.90;30.59
25232;BME280;13176;51.140;6.290;2023-07-09T12:53:26;100905.63;;;36.71;31.23
25232;BME280;13176;51.140;6.290;2023-07-09T12:55:59;100899.81;;;36.52;31.58
25232;BME280;13176;51.140;6.290;2023-07-09T12:58:33;100891.16;;;36.48;31.59
25232;BME280;13176;51.140;6.290;2023-07-09T13:01:07;100897.38;;;36.35;32.14
25232;BME280;13176;51.140;6.290;2023-07-09T13:03:41;100831.41;;;35.80;32.71
25232;BME280;13176;51.140;6.290;2023-07-09T13:06:28;100906.69;;;36.10;33.15
25232;BME280;13176;51.140;6.290;2023-07-09T13:08:58;100884.41;;;35.84;32.99
25232;BME280;13176;51.140;6.290;2023-07-09T13:11:34;100815.59;;;35.45;32.40
25232;BME280;13176;51.140;6.290;2023-07-09T13:14:17;100827.13;;;35.47;33.17
25232;BME280;13176;51.140;6.290;2023-07-09T13:16:44;100892.66;;;35.68;33.63
25232;BME280;13176;51.140;6.290;2023-07-09T13:19:12;100858.34;;;35.13;35.05
25232;BME280;13176;51.140;6.290;2023-07-09T13:21:40;100914.97;;;34.44;39.74
25232;BME280;13176;51.140;6.290;2023-07-09T13:24:13;100959.53;;;34.25;43.51
25232;BME280;13176;51.140;6.290;2023-07-09T13:26:40;100957.97;;;33.74;47.24